KRNC

Warren County Memorial Airport

Mc Minnville, Tennessee, USA
METAR KRNC 182135Z AUTO 25009KT 10SM FEW030 FEW090 SCT120 28/22 A2994 RMK A01
Observed Flight Rules
Aug-18 @ 21:35 UTC (19 minutes ago) Visual Flight Rules
Wind Visibility Clouds
250° at 9 knots 10 miles
  • Few at 3,000' AGL
  • Few at 9,000' AGL
  • Scattered at 12,000' AGL
Temperatures Readings
Current 28°C / 82°F
Dewpoint 22°C / 72°F
Humidity 70%
Altimeter 29.94" Hg
Pressure 1014 hPa
Elevation 315
METAR KRNC 182135Z AUTO 25009KT 10SM FEW030 FEW090 SCT120 28/22 A2994 RMK A01
Observed Flight Rules
Aug-18 @ 21:35 UTC
(19 minutes ago)
VFR
Wind Visibility
250° at 9 knots 10 miles
Clouds
  • Few at 3,000' AGL
  • Few at 9,000' AGL
  • Scattered at 12,000' AGL
Temperature Dewpoint
28°C / 82°F 22°C / 72°F
Humidity Altimeter Pressure
70% 29.94" Hg 1014 hPa